Time;durP1;ratioP1;P1;durP2;ratioP2;P2;SDS_P1;SDS_P2;PMS_P1;PMS_P2;Temp;Humidity;BMP_temperature;BMP_pressure;BME280_temperature;BME280_humidity;BME280_pressure;Samples;Min_cycle;Max_cycle;Signal;HPM_P1;HPM_P2
2023/03/17 00:02:09;;;;;;;4.70;2.00;;;6.20;99.90;;;;;;4828955;29;20267;-60
2023/03/17 00:04:38;;;;;;;3.13;1.47;;;6.20;99.90;;;;;;4829007;29;20229;-60
2023/03/17 00:07:07;;;;;;;3.13;1.50;;;6.20;99.90;;;;;;4829607;29;20246;-60
2023/03/17 00:09:37;;;;;;;2.07;1.20;;;6.20;99.90;;;;;;4829501;29;20633;-61
2023/03/17 00:12:10;;;;;;;2.47;1.60;;;6.20;99.90;;;;;;4829642;29;20822;-61
2023/03/17 00:14:39;;;;;;;2.87;2.00;;;6.20;99.90;;;;;;4829326;29;20243;-61
2023/03/17 00:17:12;;;;;;;3.67;1.73;;;6.20;99.90;;;;;;4829436;29;20274;-61
2023/03/17 00:19:43;;;;;;;3.83;1.47;;;6.20;99.90;;;;;;4836305;29;20326;-61
2023/03/17 00:22:17;;;;;;;2.70;1.57;;;6.10;99.90;;;;;;4844633;29;20643;-61
2023/03/17 00:24:46;;;;;;;3.37;1.60;;;6.10;99.90;;;;;;4835379;29;20700;-61
2023/03/17 00:27:17;;;;;;;3.83;1.70;;;6.10;99.90;;;;;;4827127;29;20232;-61
2023/03/17 00:29:45;;;;;;;3.13;1.67;;;6.10;99.90;;;;;;4825989;29;20344;-61
2023/03/17 00:32:17;;;;;;;3.80;1.73;;;6.00;99.90;;;;;;4825598;29;20786;-61
2023/03/17 00:34:45;;;;;;;2.77;1.60;;;6.00;99.90;;;;;;4810112;29;20236;-61
2023/03/17 00:37:16;;;;;;;2.83;1.40;;;6.00;99.90;;;;;;4806727;29;20293;-61
2023/03/17 00:39:44;;;;;;;2.80;1.70;;;6.00;99.90;;;;;;4807943;29;20687;-61
2023/03/17 00:42:13;;;;;;;2.13;1.40;;;5.90;99.90;;;;;;4808004;29;20224;-61
2023/03/17 00:44:44;;;;;;;2.67;1.90;;;6.00;99.90;;;;;;4812561;29;20251;-60
2023/03/17 00:47:13;;;;;;;2.57;1.53;;;5.90;99.90;;;;;;4825998;29;20251;-61
2023/03/17 00:49:42;;;;;;;3.40;1.80;;;5.90;99.90;;;;;;4833799;29;20591;-61
2023/03/17 00:52:11;;;;;;;3.93;1.70;;;5.90;99.90;;;;;;4844296;29;20315;-61
2023/03/17 00:54:41;;;;;;;2.60;1.67;;;5.90;99.90;;;;;;4834950;29;20331;-61
2023/03/17 00:57:11;;;;;;;5.27;1.97;;;5.90;99.90;;;;;;4825626;29;20695;-61
2023/03/17 00:59:44;;;;;;;6.07;1.60;;;5.90;99.90;;;;;;4825713;29;20256;-61
2023/03/17 01:02:13;;;;;;;2.97;1.60;;;5.90;99.90;;;;;;4824127;29;20282;-61
2023/03/17 01:04:45;;;;;;;4.43;1.73;;;5.90;99.90;;;;;;4811805;29;20225;-61
2023/03/17 01:07:29;;;;;;;1.60;1.50;;;5.90;99.90;;;;;;4824212;29;20247;-61
2023/03/17 01:09:57;;;;;;;3.77;1.50;;;5.80;99.90;;;;;;4825648;29;20307;-61
2023/03/17 01:12:26;;;;;;;1.63;1.40;;;5.80;99.90;;;;;;4825548;29;20230;-60
2023/03/17 01:14:56;;;;;;;3.67;2.00;;;5.80;99.90;;;;;;4825616;29;20292;-61
2023/03/17 01:17:25;;;;;;;2.60;1.73;;;5.80;99.90;;;;;;4825452;29;20220;-60
2023/03/17 01:19:56;;;;;;;3.13;1.90;;;5.70;99.90;;;;;;4832429;29;20246;-61
2023/03/17 01:22:25;;;;;;;2.60;1.80;;;5.70;99.90;;;;;;4843784;29;20691;-61
2023/03/17 01:24:54;;;;;;;2.83;1.97;;;5.70;99.90;;;;;;4834166;29;20240;-61
2023/03/17 01:27:23;;;;;;;2.47;1.70;;;5.70;99.90;;;;;;4825432;29;20237;-61
2023/03/17 01:29:56;;;;;;;2.80;1.60;;;5.70;99.90;;;;;;4826039;29;20236;-61
2023/03/17 01:32:29;;;;;;;2.80;1.70;;;5.70;99.90;;;;;;4824062;29;20258;-61
2023/03/17 01:35:00;;;;;;;2.33;1.80;;;5.70;99.90;;;;;;4825626;29;20573;-61
2023/03/17 01:37:28;;;;;;;3.50;1.43;;;5.70;99.90;;;;;;4825492;29;20719;-60
2023/03/17 01:39:57;;;;;;;2.30;1.97;;;5.70;99.90;;;;;;4825061;29;20232;-61
2023/03/17 01:42:28;;;;;;;3.30;1.77;;;5.60;99.90;;;;;;4825459;29;20224;-61
2023/03/17 01:45:00;;;;;;;3.63;1.77;;;5.60;99.90;;;;;;4824824;29;20234;-61
2023/03/17 01:47:30;;;;;;;3.40;1.70;;;5.60;99.90;;;;;;4826048;29;20715;-61
2023/03/17 01:50:08;;;;;;;2.20;2.00;;;5.60;99.90;;;;;;4835993;29;20684;-61
2023/03/17 01:52:39;;;;;;;2.63;1.63;;;5.70;99.90;;;;;;4843116;29;20243;-61
2023/03/17 01:55:11;;;;;;;4.17;2.10;;;5.70;99.90;;;;;;4833115;29;20323;-62
2023/03/17 01:57:44;;;;;;;3.53;1.40;;;5.70;99.90;;;;;;4825180;29;20250;-61
2023/03/17 02:00:19;;;;;;;3.87;1.70;;;5.60;99.90;;;;;;4824049;29;20305;-60
2023/03/17 02:02:50;;;;;;;3.30;1.60;;;5.60;99.90;;;;;;4816561;29;20227;-61
2023/03/17 02:05:21;;;;;;;3.80;1.93;;;5.60;99.90;;;;;;4825045;29;20220;-61
2023/03/17 02:07:51;;;;;;;2.43;2.00;;;5.60;99.90;;;;;;4824707;29;20235;-61
2023/03/17 02:10:21;;;;;;;2.77;1.77;;;5.60;99.90;;;;;;4824637;29;20322;-60
2023/03/17 02:12:54;;;;;;;3.17;2.23;;;5.60;99.90;;;;;;4816105;29;20315;-61
2023/03/17 02:15:37;;;;;;;2.20;1.67;;;5.60;99.90;;;;;;4806047;29;20242;-60
2023/03/17 02:18:06;;;;;;;3.50;2.10;;;5.60;99.90;;;;;;4809101;29;20274;-61
2023/03/17 02:21:32;;;;;;;2.27;1.70;;;5.60;99.90;;;;;;4837877;29;20263;-61
2023/03/17 02:24:06;;;;;;;3.80;2.03;;;5.60;99.90;;;;;;4806971;29;20229;-60
2023/03/17 02:26:37;;;;;;;4.00;2.13;;;5.60;99.90;;;;;;4838237;29;20223;-61
2023/03/17 02:29:06;;;;;;;3.93;2.07;;;5.60;99.90;;;;;;4824664;29;20815;-60
2023/03/17 02:31:35;;;;;;;2.97;1.80;;;5.60;99.90;;;;;;4826090;29;20337;-61
2023/03/17 02:34:06;;;;;;;3.40;2.70;;;5.60;99.90;;;;;;4824752;29;20250;-60
2023/03/17 02:36:37;;;;;;;4.00;2.47;;;5.60;99.90;;;;;;4824176;29;20304;-60
2023/03/17 02:39:07;;;;;;;2.33;1.90;;;5.60;99.90;;;;;;4824689;29;20235;-60
2023/03/17 02:41:36;;;;;;;2.83;2.20;;;5.60;99.90;;;;;;4818168;29;20224;-61
2023/03/17 02:44:05;;;;;;;4.40;2.10;;;5.60;99.90;;;;;;4813532;29;20252;-60
2023/03/17 02:46:34;;;;;;;2.60;1.90;;;5.60;99.90;;;;;;4822880;29;20638;-61
2023/03/17 02:49:04;;;;;;;5.93;2.20;;;5.60;99.90;;;;;;4825483;29;20746;-60
2023/03/17 02:51:33;;;;;;;5.10;2.00;;;5.60;99.90;;;;;;4836553;29;20228;-60
2023/03/17 02:54:02;;;;;;;2.50;1.90;;;5.60;99.90;;;;;;4823786;29;20330;-61
2023/03/17 02:56:31;;;;;;;3.87;2.10;;;5.60;99.90;;;;;;4820990;29;20246;-60
2023/03/17 02:59:00;;;;;;;4.00;2.33;;;5.60;99.90;;;;;;4824350;29;20236;-61
2023/03/17 03:01:29;;;;;;;2.93;2.27;;;5.60;99.90;;;;;;4823024;29;20250;-61
2023/03/17 03:03:58;;;;;;;4.70;2.10;;;5.70;99.90;;;;;;4823998;29;20722;-61
2023/03/17 03:06:27;;;;;;;4.17;2.17;;;5.60;99.90;;;;;;4823817;29;20715;-60
2023/03/17 03:08:55;;;;;;;3.13;2.13;;;5.70;99.90;;;;;;4823958;29;20664;-61
2023/03/17 03:11:25;;;;;;;2.30;1.90;;;5.60;99.90;;;;;;4821027;29;20256;-60
2023/03/17 03:13:53;;;;;;;2.33;2.00;;;5.60;99.90;;;;;;4805929;29;20297;-60
2023/03/17 03:16:22;;;;;;;2.20;1.97;;;5.60;99.90;;;;;;4805860;29;20324;-60
2023/03/17 03:18:50;;;;;;;3.13;2.33;;;5.60;99.90;;;;;;4815525;29;20292;-60
2023/03/17 03:21:19;;;;;;;2.23;1.80;;;5.60;99.90;;;;;;4835664;29;20581;-60
2023/03/17 03:23:47;;;;;;;3.47;2.33;;;5.60;99.90;;;;;;4805673;29;20267;-60
2023/03/17 03:26:15;;;;;;;3.23;2.37;;;5.60;99.90;;;;;;4819750;29;20342;-60
2023/03/17 03:28:45;;;;;;;2.70;2.30;;;5.60;99.90;;;;;;4823427;29;20660;-60
2023/03/17 03:31:14;;;;;;;2.80;2.20;;;5.60;99.90;;;;;;4823347;29;20242;-60
2023/03/17 03:33:44;;;;;;;2.73;2.47;;;5.60;99.90;;;;;;4816190;29;20314;-60
2023/03/17 03:36:13;;;;;;;2.90;2.17;;;5.50;99.90;;;;;;4823792;29;20712;-61
2023/03/17 03:38:42;;;;;;;2.83;2.07;;;5.50;99.90;;;;;;4823625;29;20282;-60
2023/03/17 03:41:11;;;;;;;6.00;2.57;;;5.50;99.90;;;;;;4823862;29;20306;-60
2023/03/17 03:43:41;;;;;;;4.03;2.30;;;5.50;99.90;;;;;;4805400;29;20237;-60
2023/03/17 03:46:11;;;;;;;2.80;2.10;;;5.50;99.90;;;;;;4805224;29;20241;-60
2023/03/17 03:48:40;;;;;;;2.83;2.13;;;5.50;99.90;;;;;;4811105;29;20243;-60
2023/03/17 03:51:08;;;;;;;4.50;2.67;;;5.50;99.90;;;;;;4841866;29;20242;-61
2023/03/17 03:53:37;;;;;;;4.73;2.60;;;5.50;99.90;;;;;;4824047;29;20293;-60
2023/03/17 03:56:06;;;;;;;2.93;2.27;;;5.50;99.90;;;;;;4822440;29;20269;-60
2023/03/17 03:58:35;;;;;;;2.90;2.30;;;5.50;99.90;;;;;;4826424;29;20239;-60
2023/03/17 04:01:05;;;;;;;3.33;2.30;;;5.50;99.90;;;;;;4826404;29;20275;-60
2023/03/17 04:03:35;;;;;;;5.10;2.37;;;5.50;99.90;;;;;;4826171;29;20497;-61
2023/03/17 04:06:05;;;;;;;3.47;2.30;;;5.50;99.90;;;;;;4826850;29;20311;-60
2023/03/17 04:08:36;;;;;;;2.77;2.30;;;5.40;99.90;;;;;;4826352;29;20288;-60
2023/03/17 04:11:05;;;;;;;4.47;2.73;;;5.50;99.90;;;;;;4825651;29;20542;-60
2023/03/17 04:13:33;;;;;;;5.87;3.30;;;5.50;99.90;;;;;;4826318;29;20767;-60
2023/03/17 04:16:02;;;;;;;3.30;2.30;;;5.40;99.90;;;;;;4826285;29;20296;-60
2023/03/17 04:18:31;;;;;;;3.63;2.37;;;5.40;99.90;;;;;;4826186;29;20591;-61
2023/03/17 04:21:01;;;;;;;3.37;2.70;;;5.40;99.90;;;;;;4841861;29;20258;-61
2023/03/17 04:23:30;;;;;;;4.47;2.63;;;5.40;99.90;;;;;;4813145;29;20233;-60
2023/03/17 04:25:58;;;;;;;2.43;1.87;;;5.40;99.90;;;;;;4820655;29;20369;-60
2023/03/17 04:28:27;;;;;;;3.07;2.60;;;5.40;99.90;;;;;;4826087;29;20239;-60
2023/03/17 04:30:56;;;;;;;2.70;2.13;;;5.40;99.90;;;;;;4825794;29;20526;-60
2023/03/17 04:33:27;;;;;;;3.27;2.50;;;5.40;99.90;;;;;;4826266;29;20304;-60
2023/03/17 04:35:57;;;;;;;4.73;2.70;;;5.40;99.90;;;;;;4826056;29;20296;-60
2023/03/17 04:38:27;;;;;;;3.60;2.67;;;5.40;99.90;;;;;;4824694;29;20255;-61
2023/03/17 04:40:55;;;;;;;4.57;2.67;;;5.40;99.90;;;;;;4826363;29;20279;-60
2023/03/17 04:43:24;;;;;;;6.57;3.00;;;5.40;99.90;;;;;;4826009;29;20481;-60
2023/03/17 04:45:53;;;;;;;3.83;2.70;;;5.40;99.90;;;;;;4824785;29;20296;-60
2023/03/17 04:48:22;;;;;;;3.10;2.50;;;5.40;99.90;;;;;;4825817;29;20253;-60
2023/03/17 04:50:50;;;;;;;3.57;2.83;;;5.40;99.90;;;;;;4842455;29;20747;-60
2023/03/17 04:53:19;;;;;;;2.87;2.27;;;5.40;99.90;;;;;;4825978;29;20311;-60
2023/03/17 04:55:51;;;;;;;3.83;3.10;;;5.40;99.90;;;;;;4825275;29;20581;-60
2023/03/17 04:58:21;;;;;;;5.73;2.77;;;5.40;99.90;;;;;;4818580;29;20239;-60
2023/03/17 05:00:58;;;;;;;3.87;2.90;;;5.30;99.90;;;;;;4817138;29;20489;-60
2023/03/17 05:03:28;;;;;;;4.17;3.20;;;5.30;99.90;;;;;;4819252;29;20233;-61
2023/03/17 05:05:57;;;;;;;6.47;3.13;;;5.30;99.90;;;;;;4828196;29;20646;-60
2023/03/17 05:08:27;;;;;;;4.07;3.27;;;5.30;99.90;;;;;;4836558;29;20327;-60
2023/03/17 05:10:57;;;;;;;5.60;2.70;;;5.30;99.90;;;;;;4807429;29;20251;-60
2023/03/17 05:13:27;;;;;;;4.03;3.00;;;5.30;99.90;;;;;;4817376;29;20260;-60
2023/03/17 05:16:00;;;;;;;3.57;2.80;;;5.30;99.90;;;;;;4821234;29;20242;-61
2023/03/17 05:18:32;;;;;;;3.73;2.73;;;5.30;99.90;;;;;;4814729;29;20703;-60
2023/03/17 05:21:01;;;;;;;5.03;3.00;;;5.20;99.90;;;;;;4821249;29;20484;-60
2023/03/17 05:23:30;;;;;;;4.17;2.93;;;5.30;99.90;;;;;;4819627;29;20269;-61
2023/03/17 05:26:02;;;;;;;5.83;3.57;;;5.20;99.90;;;;;;4818971;29;20299;-60
2023/03/17 05:28:31;;;;;;;5.93;3.20;;;5.20;99.90;;;;;;4816804;29;20495;-61
2023/03/17 05:30:59;;;;;;;4.63;3.30;;;5.20;99.90;;;;;;4806796;29;20263;-60
2023/03/17 05:33:28;;;;;;;5.03;3.20;;;5.20;99.90;;;;;;4806909;29;20602;-60
2023/03/17 05:36:00;;;;;;;3.77;2.83;;;5.20;99.90;;;;;;4811923;29;20240;-61
2023/03/17 05:38:28;;;;;;;4.17;3.10;;;5.20;99.90;;;;;;4815280;29;20339;-61
2023/03/17 05:40:58;;;;;;;3.50;3.10;;;5.20;99.90;;;;;;4815493;29;20231;-60
2023/03/17 05:43:27;;;;;;;4.27;3.17;;;5.30;99.90;;;;;;4816055;29;20232;-60
2023/03/17 05:45:56;;;;;;;4.47;3.27;;;5.30;99.90;;;;;;4815255;29;20696;-60
2023/03/17 05:48:25;;;;;;;3.63;3.03;;;5.30;99.90;;;;;;4818207;29;20259;-60
2023/03/17 05:50:53;;;;;;;5.43;3.30;;;5.20;99.90;;;;;;4835698;29;20637;-60
2023/03/17 05:53:23;;;;;;;4.50;3.13;;;5.30;99.90;;;;;;4825579;29;20756;-60
2023/03/17 05:55:52;;;;;;;4.17;3.50;;;5.30;99.90;;;;;;4823133;29;20342;-60
2023/03/17 05:58:21;;;;;;;4.67;3.40;;;5.30;99.90;;;;;;4825032;29;20719;-60
2023/03/17 06:00:51;;;;;;;4.40;3.43;;;5.40;99.90;;;;;;4824579;29;20735;-60
2023/03/17 06:03:23;;;;;;;6.03;3.40;;;5.40;99.90;;;;;;4824972;29;20334;-60
2023/03/17 06:05:52;;;;;;;5.40;3.50;;;5.40;99.90;;;;;;4806675;29;20233;-60
2023/03/17 06:08:20;;;;;;;4.97;3.53;;;5.40;99.90;;;;;;4822279;29;20235;-60
2023/03/17 06:10:49;;;;;;;4.60;3.17;;;5.40;99.90;;;;;;4818361;29;20236;-60
2023/03/17 06:13:17;;;;;;;5.73;3.73;;;5.50;99.90;;;;;;4824221;29;20722;-60
2023/03/17 06:15:50;;;;;;;4.43;3.30;;;5.50;99.90;;;;;;4824375;29;20291;-60
2023/03/17 06:18:19;;;;;;;4.37;3.40;;;5.50;99.90;;;;;;4827148;29;20285;-60
2023/03/17 06:20:48;;;;;;;5.10;3.40;;;5.60;99.90;;;;;;4840970;29;20235;-60
2023/03/17 06:23:19;;;;;;;4.77;3.50;;;5.60;99.90;;;;;;4816460;29;20233;-60
2023/03/17 06:25:48;;;;;;;7.13;3.43;;;5.70;99.90;;;;;;4818171;29;20232;-60
2023/03/17 06:28:17;;;;;;;6.83;3.80;;;5.70;99.90;;;;;;4824636;29;20318;-60
2023/03/17 06:30:47;;;;;;;4.00;3.50;;;5.80;99.90;;;;;;4815554;29;20609;-60
2023/03/17 06:33:18;;;;;;;5.13;3.20;;;5.90;99.90;;;;;;4823430;29;20243;-60
2023/03/17 06:35:47;;;;;;;5.13;3.63;;;5.90;99.90;;;;;;4824664;29;20250;-60
2023/03/17 06:38:16;;;;;;;5.17;3.63;;;6.00;99.90;;;;;;4825104;29;20243;-60
2023/03/17 06:40:46;;;;;;;5.70;3.50;;;6.10;99.90;;;;;;4824342;29;20304;-60
2023/03/17 06:43:16;;;;;;;4.87;3.83;;;6.20;99.90;;;;;;4853740;29;20239;-60
2023/03/17 06:45:45;;;;;;;5.23;4.00;;;6.20;99.90;;;;;;4827088;29;20711;-60
2023/03/17 06:48:16;;;;;;;6.07;4.20;;;6.30;99.90;;;;;;4824441;29;20228;-60
2023/03/17 06:50:46;;;;;;;5.47;4.30;;;6.30;99.90;;;;;;4832774;29;20791;-61
2023/03/17 06:53:17;;;;;;;5.97;4.07;;;6.40;99.90;;;;;;4842533;29;20239;-59
2023/03/17 06:55:47;;;;;;;4.90;3.60;;;6.50;99.90;;;;;;4830284;29;20346;-60
2023/03/17 06:58:19;;;;;;;4.70;3.57;;;6.50;99.90;;;;;;4823024;29;20239;-60
2023/03/17 07:00:52;;;;;;;4.57;3.37;;;6.60;99.90;;;;;;4821978;29;20251;-60
2023/03/17 07:03:23;;;;;;;6.07;3.70;;;6.60;99.90;;;;;;4824573;29;20260;-60
2023/03/17 07:05:52;;;;;;;5.40;3.83;;;6.60;99.90;;;;;;4824207;29;20236;-60
2023/03/17 07:08:21;;;;;;;6.30;3.53;;;6.70;99.90;;;;;;4824118;29;20231;-60
2023/03/17 07:10:54;;;;;;;4.70;3.40;;;6.70;99.90;;;;;;4824361;29;20570;-61
2023/03/17 07:13:23;;;;;;;5.97;3.57;;;6.70;99.90;;;;;;4820470;29;20289;-59
2023/03/17 07:15:52;;;;;;;5.77;3.83;;;6.70;99.90;;;;;;4822022;29;20227;-60
2023/03/17 07:18:24;;;;;;;5.87;4.23;;;6.90;99.90;;;;;;4837264;29;20248;-60
2023/03/17 07:20:54;;;;;;;6.87;4.10;;;7.20;99.90;;;;;;4834612;29;20281;-60
2023/03/17 07:23:25;;;;;;;5.17;3.33;;;7.20;99.90;;;;;;4847548;29;20224;-62
2023/03/17 07:25:56;;;;;;;4.67;3.60;;;7.30;99.90;;;;;;4839144;29;20293;-62
2023/03/17 07:28:25;;;;;;;5.47;3.47;;;7.40;99.90;;;;;;4834318;29;20588;-60
2023/03/17 07:30:56;;;;;;;5.70;3.27;;;7.40;99.90;;;;;;4834710;29;20243;-61
2023/03/17 07:33:27;;;;;;;5.40;3.70;;;7.40;99.90;;;;;;4837573;29;20235;-61
2023/03/17 07:35:56;;;;;;;4.77;3.80;;;7.50;99.90;;;;;;4838624;29;20238;-60
2023/03/17 07:38:25;;;;;;;5.10;3.40;;;7.50;99.90;;;;;;4836991;29;20248;-62
2023/03/17 07:40:54;;;;;;;4.73;3.63;;;7.50;99.90;;;;;;4839797;29;20604;-62
2023/03/17 07:43:23;;;;;;;4.80;3.67;;;7.50;99.90;;;;;;4840549;29;20228;-61
2023/03/17 07:45:51;;;;;;;4.63;3.60;;;7.60;99.90;;;;;;4841011;29;20330;-62
2023/03/17 07:48:20;;;;;;;4.47;3.57;;;7.60;99.90;;;;;;4841039;29;20236;-61
2023/03/17 07:50:51;;;;;;;5.10;3.60;;;7.60;99.90;;;;;;4843871;29;20247;-61
2023/03/17 07:53:19;;;;;;;5.43;3.70;;;8.00;99.90;;;;;;4842542;29;20327;-62
2023/03/17 07:55:48;;;;;;;4.37;3.37;;;8.40;99.90;;;;;;4842938;29;20251;-62
2023/03/17 07:58:17;;;;;;;7.03;3.63;;;8.60;99.90;;;;;;4846085;29;20243;-62
2023/03/17 08:00:45;;;;;;;5.20;3.73;;;8.60;99.90;;;;;;4846155;29;20276;-62
2023/03/17 08:03:14;;;;;;;5.77;4.20;;;8.60;99.90;;;;;;4847220;29;20223;-62
2023/03/17 08:05:44;;;;;;;5.20;3.67;;;8.60;99.90;;;;;;4844671;29;20263;-62
2023/03/17 08:08:16;;;;;;;4.87;3.43;;;8.60;99.90;;;;;;4837422;29;20225;-62
2023/03/17 08:10:44;;;;;;;5.43;4.10;;;8.80;99.90;;;;;;4837807;29;20238;-63
2023/03/17 08:13:13;;;;;;;8.57;4.57;;;9.00;99.90;;;;;;4833277;29;20245;-63
2023/03/17 08:15:42;;;;;;;8.17;5.57;;;9.20;99.90;;;;;;4839373;29;20265;-62
2023/03/17 08:18:11;;;;;;;5.63;4.43;;;9.30;99.90;;;;;;4834239;29;20648;-62
2023/03/17 08:20:40;;;;;;;5.33;4.00;;;9.40;99.90;;;;;;4831488;29;20260;-62
2023/03/17 08:23:09;;;;;;;7.10;3.87;;;9.60;99.90;;;;;;4832182;29;20233;-63
2023/03/17 08:25:39;;;;;;;5.20;3.57;;;9.80;99.90;;;;;;4829618;29;20240;-63
2023/03/17 08:28:08;;;;;;;4.30;3.50;;;9.60;99.90;;;;;;4827629;29;20244;-63
2023/03/17 08:30:37;;;;;;;5.33;3.80;;;9.60;99.90;;;;;;4823097;29;20312;-63
2023/03/17 08:33:06;;;;;;;4.00;3.27;;;9.70;99.90;;;;;;4824128;29;20319;-63
2023/03/17 08:35:35;;;;;;;5.07;3.67;;;9.70;99.90;;;;;;4824532;29;20241;-63
2023/03/17 08:38:04;;;;;;;4.43;3.67;;;9.70;99.90;;;;;;4822928;29;20236;-62
2023/03/17 08:40:35;;;;;;;4.77;3.57;;;9.80;99.90;;;;;;4821244;29;20242;-63
2023/03/17 08:43:06;;;;;;;5.53;4.00;;;9.90;99.90;;;;;;4823324;29;20235;-63
2023/03/17 08:45:35;;;;;;;4.60;3.60;;;9.90;99.90;;;;;;4822869;29;20782;-63
2023/03/17 08:48:06;;;;;;;4.07;3.50;;;9.90;99.90;;;;;;4825123;29;20292;-63
2023/03/17 08:50:34;;;;;;;5.20;3.40;;;10.10;99.90;;;;;;4827539;29;20226;-62
2023/03/17 08:53:04;;;;;;;6.10;3.27;;;10.20;99.90;;;;;;4819341;29;20239;-62
2023/03/17 08:55:35;;;;;;;4.57;3.07;;;10.30;99.90;;;;;;4822931;29;20359;-62
2023/03/17 08:58:06;;;;;;;4.90;3.47;;;10.60;99.90;;;;;;4832075;29;20325;-62
2023/03/17 09:00:34;;;;;;;4.00;3.10;;;10.80;99.90;;;;;;4831138;29;20721;-62
2023/03/17 09:03:04;;;;;;;3.93;3.33;;;11.10;99.90;;;;;;4833001;29;20261;-63
2023/03/17 09:05:33;;;;;;;4.47;3.40;;;11.50;99.90;;;;;;4831292;29;20227;-62
2023/03/17 09:08:09;;;;;;;4.13;3.60;;;11.80;99.90;;;;;;4814531;29;20255;-63
2023/03/17 09:10:41;;;;;;;4.00;3.47;;;12.20;99.90;;;;;;4811011;29;20239;-63
2023/03/17 09:13:13;;;;;;;4.23;3.37;;;12.80;99.90;;;;;;4809893;29;20591;-63
2023/03/17 09:15:42;;;;;;;3.77;3.23;;;13.20;99.90;;;;;;4809699;29;20248;-62
2023/03/17 09:18:11;;;;;;;4.63;3.23;;;13.40;99.90;;;;;;4813466;29;20238;-63
2023/03/17 09:20:40;;;;;;;4.23;3.73;;;13.90;99.90;;;;;;4843500;29;20244;-64
2023/03/17 09:23:10;;;;;;;4.60;3.27;;;14.20;99.90;;;;;;4841176;29;20324;-64
2023/03/17 09:25:41;;;;;;;4.33;3.07;;;14.30;99.90;;;;;;4819108;29;20282;-64
2023/03/17 09:28:13;;;;;;;4.80;3.60;;;14.50;99.90;;;;;;4818392;29;20768;-63
2023/03/17 09:30:42;;;;;;;4.47;3.83;;;14.30;99.90;;;;;;4815879;29;20273;-64
2023/03/17 09:33:11;;;;;;;4.67;4.17;;;14.40;99.90;;;;;;4817321;29;20281;-64
2023/03/17 09:35:41;;;;;;;5.13;4.50;;;14.50;99.90;;;;;;4816288;29;20243;-64
2023/03/17 09:38:11;;;;;;;4.03;3.17;;;14.20;99.90;;;;;;4815252;29;20273;-64
2023/03/17 09:40:48;;;;;;;4.50;3.47;;;14.00;99.90;;;;;;4816505;29;20244;-64
2023/03/17 09:43:29;;;;;;;4.17;3.30;;;14.30;99.90;;;;;;4817865;29;20231;-64
2023/03/17 09:45:59;;;;;;;4.80;3.73;;;14.50;99.90;;;;;;4815264;29;20324;-64
2023/03/17 09:48:45;;;;;;;4.37;3.30;;;14.70;99.90;;;;;;4825125;29;20255;-64
2023/03/17 09:51:18;;;;;;;4.50;3.53;;;14.70;99.90;;;;;;4825303;29;20240;-64
2023/03/17 09:53:51;;;;;;;6.13;4.00;;;14.40;99.90;;;;;;4817100;29;20242;-64
2023/03/17 09:56:21;;;;;;;4.90;3.87;;;13.80;99.90;;;;;;4820116;29;20273;-63
2023/03/17 09:58:54;;;;;;;4.17;3.40;;;13.60;99.90;;;;;;4832986;29;20691;-64
2023/03/17 10:01:25;;;;;;;5.23;3.77;;;13.50;99.90;;;;;;4831403;29;20282;-63
2023/03/17 10:03:54;;;;;;;4.47;3.47;;;13.40;99.90;;;;;;4827076;29;20265;-64
2023/03/17 10:06:36;;;;;;;5.20;3.80;;;13.50;99.90;;;;;;4835506;29;20250;-64
2023/03/17 10:09:19;;;;;;;4.80;3.40;;;13.70;99.90;;;;;;4818782;29;20234;-64
2023/03/17 10:11:50;;;;;;;5.70;3.80;;;13.70;99.90;;;;;;4825763;29;20725;-64
2023/03/17 10:14:34;;;;;;;4.07;3.50;;;13.80;99.90;;;;;;4826808;29;20262;-64
2023/03/17 10:17:12;;;;;;;4.97;3.73;;;13.90;99.90;;;;;;4826636;29;20331;-63
2023/03/17 10:19:45;;;;;;;3.63;3.30;;;13.80;99.90;;;;;;4823031;29;20329;-63
2023/03/17 10:22:20;;;;;;;4.40;3.40;;;13.90;99.90;;;;;;4826856;29;20239;-63
2023/03/17 10:24:57;;;;;;;4.10;3.37;;;14.10;99.90;;;;;;4824189;29;20319;-62
2023/03/17 10:27:26;;;;;;;4.67;3.70;;;14.40;99.90;;;;;;4820830;29;20251;-64
2023/03/17 10:30:18;;;;;;;5.23;3.70;;;14.70;99.90;;;;;;4825294;29;20748;-63
2023/03/17 10:32:51;;;;;;;4.53;3.33;;;15.10;99.90;;;;;;4825872;29;20243;-63
2023/03/17 10:35:23;;;;;;;5.00;3.90;;;15.10;99.90;;;;;;4825741;29;20315;-64
2023/03/17 10:37:51;;;;;;;5.10;4.00;;;15.40;99.90;;;;;;4821528;29;20241;-64
2023/03/17 10:40:41;;;;;;;5.17;3.90;;;15.70;99.90;;;;;;4825517;29;20331;-64
2023/03/17 10:43:20;;;;;;;4.83;3.73;;;15.80;99.90;;;;;;4831861;29;20258;-64
2023/03/17 10:46:00;;;;;;;4.20;3.50;;;15.80;99.90;;;;;;4841419;29;20326;-65
2023/03/17 10:48:36;;;;;;;3.80;3.40;;;15.70;99.90;;;;;;4827126;29;20269;-65
2023/03/17 10:51:09;;;;;;;4.13;3.40;;;15.60;99.90;;;;;;4828275;29;20224;-64
2023/03/17 10:53:42;;;;;;;5.07;3.60;;;15.60;99.90;;;;;;4842805;29;20266;-65
2023/03/17 10:56:23;;;;;;;4.03;3.30;;;15.70;99.90;;;;;;4828617;29;20250;-64
2023/03/17 10:58:54;;;;;;;5.80;3.80;;;15.70;99.90;;;;;;4822327;29;20242;-65
2023/03/17 11:01:29;;;;;;;6.20;4.13;;;15.80;99.90;;;;;;4824804;29;20708;-65
2023/03/17 11:04:01;;;;;;;4.83;3.67;;;16.00;99.90;;;;;;4824655;29;20683;-64
2023/03/17 11:06:37;;;;;;;5.47;4.13;;;16.30;99.90;;;;;;4824353;29;20704;-65
2023/03/17 11:09:09;;;;;;;4.83;3.93;;;16.40;99.90;;;;;;4825536;29;20261;-65
2023/03/17 11:11:47;;;;;;;5.00;4.07;;;16.40;99.90;;;;;;4824686;29;20233;-64
2023/03/17 11:14:20;;;;;;;5.87;3.93;;;16.10;99.90;;;;;;4824825;29;20330;-65
2023/03/17 11:16:58;;;;;;;5.10;4.07;;;16.20;99.90;;;;;;4824619;29;20710;-65
2023/03/17 11:19:43;;;;;;;4.17;3.77;;;16.20;99.90;;;;;;4823405;29;20237;-64
2023/03/17 11:22:16;;;;;;;5.73;3.63;;;16.40;99.90;;;;;;4836058;29;20323;-65
2023/03/17 11:24:56;;;;;;;4.60;3.90;;;16.10;99.90;;;;;;4830862;29;20276;-64
2023/03/17 11:27:34;;;;;;;4.00;3.47;;;16.10;99.90;;;;;;4826773;29;20277;-64
2023/03/17 11:30:21;;;;;;;4.07;3.43;;;16.30;99.90;;;;;;4816854;29;20688;-65
2023/03/17 11:32:57;;;;;;;5.73;3.60;;;16.50;99.90;;;;;;4824375;29;20248;-64
2023/03/17 11:35:46;;;;;;;5.00;3.67;;;16.80;99.90;;;;;;4837760;29;20268;-64
2023/03/17 11:38:27;;;;;;;5.07;3.83;;;16.90;99.90;;;;;;4816926;29;20245;-64
2023/03/17 11:41:20;;;;;;;5.57;3.67;;;17.20;99.90;;;;;;4822976;29;20593;-64
2023/03/17 11:44:05;;;;;;;4.93;3.77;;;17.30;99.90;;;;;;4834575;29;20238;-65
2023/03/17 11:46:43;;;;;;;5.40;3.40;;;17.70;99.90;;;;;;4822095;29;20329;-64
2023/03/17 11:49:19;;;;;;;5.33;3.50;;;17.70;99.90;;;;;;4819628;29;20594;-64
2023/03/17 11:52:01;;;;;;;4.57;3.70;;;17.90;99.90;;;;;;4821442;29;20244;-64
2023/03/17 11:54:44;;;;;;;5.03;3.40;;;17.80;99.90;;;;;;4823329;29;20610;-64
2023/03/17 11:57:17;;;;;;;6.27;3.87;;;17.80;99.90;;;;;;4817141;29;20249;-64
2023/03/17 11:59:52;;;;;;;5.60;4.23;;;17.90;99.90;;;;;;4823210;29;20291;-64
2023/03/17 12:02:28;;;;;;;4.70;3.60;;;17.90;99.90;;;;;;4822800;29;20256;-65
2023/03/17 12:05:03;;;;;;;5.43;3.77;;;17.70;99.90;;;;;;4823872;29;20247;-65
2023/03/17 12:07:36;;;;;;;4.67;3.50;;;17.50;99.90;;;;;;4823519;29;20592;-65
2023/03/17 12:10:16;;;;;;;4.23;3.23;;;17.20;99.90;;;;;;4822429;29;20230;-66
2023/03/17 12:12:49;;;;;;;5.07;3.70;;;17.20;99.90;;;;;;4825269;29;20708;-66
2023/03/17 12:15:25;;;;;;;4.73;3.63;;;17.20;99.90;;;;;;4820543;29;20231;-65
2023/03/17 12:17:59;;;;;;;4.63;3.70;;;17.20;99.90;;;;;;4826501;29;20254;-64
2023/03/17 12:20:41;;;;;;;5.23;3.70;;;17.20;99.90;;;;;;4840705;29;20223;-64
2023/03/17 12:23:20;;;;;;;5.07;3.53;;;16.90;99.90;;;;;;4824179;29;20258;-64
2023/03/17 12:25:56;;;;;;;4.63;3.57;;;16.90;99.90;;;;;;4817718;29;20268;-65
2023/03/17 12:28:30;;;;;;;5.87;3.80;;;16.80;99.90;;;;;;4826770;29;20241;-64
2023/03/17 12:31:06;;;;;;;5.03;3.57;;;17.10;99.90;;;;;;4826335;29;20629;-64
2023/03/17 12:33:43;;;;;;;5.67;3.50;;;16.90;99.90;;;;;;4825650;29;20701;-64
2023/03/17 12:36:17;;;;;;;6.20;3.63;;;16.70;99.90;;;;;;4827010;29;20235;-64
2023/03/17 12:39:00;;;;;;;5.07;3.73;;;16.80;99.90;;;;;;4821033;29;20364;-65
2023/03/17 12:41:41;;;;;;;4.23;3.60;;;17.00;99.90;;;;;;4826712;29;20259;-65
2023/03/17 12:44:29;;;;;;;6.50;3.60;;;17.20;99.90;;;;;;4826842;29;20234;-65
2023/03/17 12:47:31;;;;;;;4.83;3.50;;;17.20;99.90;;;;;;4824175;29;20337;-65
2023/03/17 12:50:29;;;;;;;5.20;3.83;;;17.00;99.90;;;;;;4819107;29;20228;-65
2023/03/17 12:53:28;;;;;;;5.20;4.10;;;17.00;99.90;;;;;;4819742;29;20262;-65
2023/03/17 12:56:07;;;;;;;6.03;4.80;;;16.90;99.90;;;;;;4824679;29;20257;-65
2023/03/17 12:58:38;;;;;;;6.97;4.07;;;17.00;99.90;;;;;;4824440;29;20238;-65
2023/03/17 13:01:18;;;;;;;5.77;3.80;;;16.80;99.90;;;;;;4823355;29;20800;-64
2023/03/17 13:04:04;;;;;;;7.10;4.97;;;16.80;99.90;;;;;;4831651;29;20241;-65
2023/03/17 13:06:43;;;;;;;7.00;5.03;;;16.80;99.90;;;;;;4811850;29;20238;-64
2023/03/17 13:09:48;;;;;;;6.33;4.27;;;16.90;99.90;;;;;;4807647;29;20233;-64
2023/03/17 13:13:02;;;;;;;5.60;4.80;;;17.20;99.90;;;;;;4787549;29;20241;-64
2023/03/17 13:16:04;;;;;;;8.70;4.80;;;17.00;99.90;;;;;;4807361;29;20253;-64
2023/03/17 13:19:06;;;;;;;5.40;4.00;;;17.10;99.90;;;;;;4797249;29;20235;-65
2023/03/17 13:21:37;;;;;;;6.17;4.30;;;17.10;99.90;;;;;;4852102;29;20872;-65